createdAt,value
2019-03-15T00:01:48.438Z,95.45
2019-03-15T00:04:16.521Z,95.55
2019-03-15T00:06:44.635Z,95.79
2019-03-15T00:09:12.730Z,96.06
2019-03-15T00:11:40.881Z,95.75
2019-03-15T00:14:08.964Z,96.13
2019-03-15T00:16:37.207Z,96.29
2019-03-15T00:19:05.293Z,96.50
2019-03-15T00:21:33.421Z,96.42
2019-03-15T00:24:01.606Z,96.73
2019-03-15T00:26:29.700Z,96.48
2019-03-15T00:28:57.807Z,96.61
2019-03-15T00:31:26.067Z,96.74
2019-03-15T00:33:54.294Z,96.81
2019-03-15T00:36:22.989Z,96.94
2019-03-15T00:38:51.212Z,97.02
2019-03-15T00:41:19.502Z,97.05
2019-03-15T00:43:49.408Z,97.45
2019-03-15T00:46:17.959Z,97.58
2019-03-15T00:48:46.458Z,97.57
2019-03-15T00:51:14.893Z,97.81
2019-03-15T00:53:42.972Z,97.79
2019-03-15T00:56:11.690Z,97.74
2019-03-15T00:58:39.878Z,97.67
2019-03-15T01:01:08.276Z,98.09
2019-03-15T01:03:36.411Z,98.33
2019-03-15T01:06:04.592Z,97.63
2019-03-15T01:08:32.897Z,97.62
2019-03-15T01:11:01.303Z,97.58
2019-03-15T01:13:29.529Z,97.80
2019-03-15T01:15:57.936Z,97.53
2019-03-15T01:18:26.189Z,97.07
2019-03-15T01:20:54.336Z,96.96
2019-03-15T01:23:22.598Z,97.27
2019-03-15T01:25:51.006Z,97.00
2019-03-15T01:28:19.103Z,96.89
2019-03-15T01:30:47.222Z,96.74
2019-03-15T01:33:15.835Z,96.71
2019-03-15T01:35:43.963Z,96.77
2019-03-15T01:38:12.091Z,96.71
2019-03-15T01:40:40.233Z,96.72
2019-03-15T01:43:08.671Z,97.11
2019-03-15T01:45:37.190Z,96.81
2019-03-15T01:48:05.411Z,96.71
2019-03-15T01:50:33.571Z,96.83
2019-03-15T01:53:01.683Z,97.16
2019-03-15T01:55:29.762Z,97.79
2019-03-15T01:57:57.998Z,97.71
2019-03-15T02:00:26.557Z,98.00
2019-03-15T02:02:54.855Z,98.33
2019-03-15T02:05:22.941Z,98.38
2019-03-15T02:07:51.079Z,98.40
2019-03-15T02:10:21.874Z,98.82
2019-03-15T02:12:49.642Z,98.88
2019-03-15T02:15:18.501Z,99.24
2019-03-15T02:17:46.824Z,99.62
2019-03-15T02:20:14.990Z,99.76
2019-03-15T02:22:43.183Z,100.00
2019-03-15T02:25:11.548Z,100.00
2019-03-15T02:27:39.760Z,100.00
2019-03-15T02:30:08.667Z,100.00
2019-03-15T02:32:37.130Z,100.00
2019-03-15T02:35:05.368Z,100.00
2019-03-15T02:37:33.890Z,100.00
2019-03-15T02:40:02.379Z,100.00
2019-03-15T02:42:30.701Z,100.00
2019-03-15T02:44:59.504Z,100.00
2019-03-15T02:47:27.583Z,100.00
2019-03-15T02:49:55.691Z,100.00
2019-03-15T02:52:23.841Z,100.00
2019-03-15T02:54:52.051Z,100.00
2019-03-15T02:57:20.151Z,100.00
2019-03-15T02:59:48.569Z,100.00
2019-03-15T03:02:16.695Z,100.00
2019-03-15T03:04:45.664Z,100.00
2019-03-15T03:07:13.772Z,100.00
2019-03-15T03:09:42.339Z,100.00
2019-03-15T03:12:10.460Z,100.00
2019-03-15T03:14:40.343Z,100.00
2019-03-15T03:17:08.614Z,100.00
2019-03-15T03:19:36.670Z,100.00
2019-03-15T03:22:04.832Z,100.00
2019-03-15T03:24:32.945Z,100.00
2019-03-15T03:27:01.063Z,100.00
2019-03-15T03:29:30.014Z,100.00
2019-03-15T03:31:58.241Z,100.00
2019-03-15T03:34:26.394Z,100.00
2019-03-15T03:36:57.836Z,100.00
2019-03-15T03:39:24.739Z,100.00
2019-03-15T03:41:53.062Z,100.00
2019-03-15T03:44:21.306Z,100.00
2019-03-15T03:46:49.472Z,100.00
2019-03-15T03:49:17.732Z,100.00
2019-03-15T03:51:45.863Z,100.00
2019-03-15T03:54:14.221Z,100.00
2019-03-15T03:56:43.398Z,100.00
2019-03-15T03:59:11.603Z,100.00
2019-03-15T04:01:39.783Z,100.00
2019-03-15T04:04:08.356Z,100.00
2019-03-15T04:06:36.941Z,100.00
2019-03-15T04:09:07.276Z,100.00
2019-03-15T04:11:35.389Z,100.00
2019-03-15T04:14:03.490Z,100.00
2019-03-15T04:16:31.696Z,100.00
2019-03-15T04:18:59.873Z,100.00
2019-03-15T04:21:28.029Z,100.00
2019-03-15T04:23:56.124Z,100.00
2019-03-15T04:26:24.246Z,100.00
2019-03-15T04:28:52.354Z,100.00
2019-03-15T04:31:20.567Z,100.00
2019-03-15T04:33:48.761Z,100.00
2019-03-15T04:36:17.120Z,100.00
2019-03-15T04:38:45.179Z,100.00
2019-03-15T04:41:13.417Z,100.00
2019-03-15T04:43:42.077Z,100.00
2019-03-15T04:46:10.284Z,100.00
2019-03-15T04:48:38.481Z,100.00
2019-03-15T04:51:07.020Z,100.00
2019-03-15T04:53:35.090Z,100.00
2019-03-15T04:56:03.376Z,100.00
2019-03-15T04:58:31.775Z,100.00
2019-03-15T05:00:59.874Z,100.00
2019-03-15T05:03:28.013Z,100.00
2019-03-15T05:06:03.187Z,100.00
2019-03-15T05:08:26.253Z,100.00
2019-03-15T05:10:54.365Z,100.00
2019-03-15T05:13:22.980Z,100.00
2019-03-15T05:15:51.093Z,100.00
2019-03-15T05:18:19.242Z,100.00
2019-03-15T05:20:47.743Z,100.00
2019-03-15T05:23:16.417Z,100.00
2019-03-15T05:25:44.512Z,100.00
2019-03-15T05:28:12.797Z,100.00
2019-03-15T05:30:40.889Z,100.00
2019-03-15T05:33:09.093Z,100.00
2019-03-15T05:35:37.207Z,100.00
2019-03-15T05:38:05.708Z,100.00
2019-03-15T05:40:33.898Z,100.00
2019-03-15T05:43:01.981Z,100.00
2019-03-15T05:45:30.135Z,100.00
2019-03-15T05:47:58.424Z,100.00
2019-03-15T05:50:26.709Z,100.00
2019-03-15T05:52:54.818Z,100.00
2019-03-15T05:55:22.970Z,100.00
2019-03-15T05:57:51.910Z,100.00
2019-03-15T06:00:20.335Z,100.00
2019-03-15T06:02:48.489Z,100.00
2019-03-15T06:05:17.120Z,100.00
2019-03-15T06:07:45.270Z,100.00
2019-03-15T06:10:13.430Z,100.00
2019-03-15T06:12:41.652Z,100.00
2019-03-15T06:15:09.951Z,100.00
2019-03-15T06:17:38.447Z,100.00
2019-03-15T06:20:07.419Z,100.00
2019-03-15T06:22:35.733Z,100.00
2019-03-15T06:25:04.253Z,100.00
2019-03-15T06:27:32.543Z,100.00
2019-03-15T06:30:00.771Z,100.00
2019-03-15T06:32:29.687Z,100.00
2019-03-15T06:34:57.865Z,100.00
2019-03-15T06:37:26.032Z,100.00
2019-03-15T06:39:55.059Z,99.77
2019-03-15T06:42:23.936Z,99.26
2019-03-15T06:44:58.029Z,99.16
2019-03-15T06:47:22.117Z,99.49
2019-03-15T06:49:50.299Z,99.16
2019-03-15T06:52:18.415Z,98.79
2019-03-15T06:54:46.563Z,98.18
2019-03-15T06:57:14.653Z,98.28
2019-03-15T06:59:42.913Z,98.52
2019-03-15T07:02:10.982Z,98.47
2019-03-15T07:04:39.261Z,96.37
2019-03-15T07:07:07.338Z,96.21
2019-03-15T07:09:35.547Z,96.58
2019-03-15T07:12:09.415Z,96.08
2019-03-15T07:14:34.016Z,95.97
2019-03-15T07:17:02.171Z,95.31
2019-03-15T07:19:30.705Z,94.75
2019-03-15T07:21:59.049Z,94.37
2019-03-15T07:24:27.306Z,93.95
2019-03-15T07:26:55.383Z,93.88
2019-03-15T07:29:23.526Z,94.50
2019-03-15T07:31:51.771Z,93.90
2019-03-15T07:34:19.987Z,93.96
2019-03-15T07:36:48.227Z,93.15
2019-03-15T07:39:16.329Z,93.33
2019-03-15T07:41:44.476Z,92.91
2019-03-15T07:44:12.564Z,93.34
2019-03-15T07:46:40.836Z,92.63
2019-03-15T07:49:09.016Z,91.48
2019-03-15T07:51:37.197Z,91.66
2019-03-15T07:54:05.935Z,90.52
2019-03-15T07:56:34.046Z,91.02
2019-03-15T07:59:02.290Z,90.66
2019-03-15T08:01:30.473Z,90.26
2019-03-15T08:03:58.560Z,90.14
2019-03-15T08:06:34.551Z,90.21
2019-03-15T08:08:56.829Z,89.83
2019-03-15T08:11:25.381Z,89.61
2019-03-15T08:13:53.634Z,89.68
2019-03-15T08:16:21.746Z,89.40
2019-03-15T08:18:49.857Z,89.24
2019-03-15T08:21:18.061Z,89.69
2019-03-15T08:23:46.189Z,89.01
2019-03-15T08:26:14.336Z,88.84
2019-03-15T08:28:43.281Z,89.86
2019-03-15T08:31:11.576Z,88.25
2019-03-15T08:33:39.704Z,89.00
2019-03-15T08:36:07.802Z,88.99
2019-03-15T08:38:46.878Z,90.01
2019-03-15T08:41:06.123Z,90.49
2019-03-15T08:43:34.859Z,89.70
2019-03-15T08:46:03.375Z,89.81
2019-03-15T08:48:32.064Z,89.48
2019-03-15T08:51:00.388Z,90.21
2019-03-15T08:53:28.959Z,91.45
2019-03-15T08:55:57.528Z,91.21
2019-03-15T08:58:25.849Z,90.75
2019-03-15T09:00:53.928Z,91.00
2019-03-15T09:03:27.693Z,90.21
2019-03-15T09:05:52.885Z,91.30
2019-03-15T09:08:21.043Z,90.53
2019-03-15T09:10:49.149Z,90.24
2019-03-15T09:13:17.491Z,89.85
2019-03-15T09:15:45.678Z,89.40
2019-03-15T09:18:13.859Z,89.69
2019-03-15T09:20:42.287Z,89.94
2019-03-15T09:23:10.464Z,89.46
2019-03-15T09:25:38.643Z,89.29
2019-03-15T09:28:06.833Z,89.68
2019-03-15T09:30:35.288Z,89.71
2019-03-15T09:33:03.501Z,89.61
2019-03-15T09:35:31.741Z,88.67
2019-03-15T09:37:59.905Z,89.16
2019-03-15T09:40:28.046Z,88.83
2019-03-15T09:42:56.545Z,88.57
2019-03-15T09:45:28.210Z,88.25
2019-03-15T09:47:56.330Z,88.22
2019-03-15T09:50:35.937Z,88.09
2019-03-15T09:52:54.720Z,88.01
2019-03-15T09:55:32.771Z,88.35
2019-03-15T09:57:52.827Z,88.31
2019-03-15T10:00:20.916Z,89.00
2019-03-15T10:02:49.028Z,89.65
2019-03-15T10:05:21.367Z,89.54
2019-03-15T10:07:49.628Z,89.66
2019-03-15T10:10:19.885Z,90.10
2019-03-15T10:12:48.097Z,90.84
2019-03-15T10:15:18.070Z,91.27
2019-03-15T10:17:46.669Z,92.03
2019-03-15T10:20:15.724Z,92.24
2019-03-15T10:22:44.774Z,93.23
2019-03-15T10:25:13.442Z,93.82
2019-03-15T10:27:41.618Z,94.11
2019-03-15T10:30:11.803Z,94.25
2019-03-15T10:32:40.023Z,94.57
2019-03-15T10:35:08.382Z,95.50
2019-03-15T10:37:36.444Z,96.77
2019-03-15T10:40:06.447Z,96.73
2019-03-15T10:42:35.263Z,97.10
2019-03-15T10:45:04.803Z,99.05
2019-03-15T10:47:33.084Z,99.25
2019-03-15T10:50:02.029Z,100.00
2019-03-15T10:52:30.649Z,100.00
2019-03-15T10:54:58.988Z,100.00
2019-03-15T10:57:28.529Z,100.00
2019-03-15T10:59:57.654Z,100.00
2019-03-15T11:02:25.895Z,100.00
2019-03-15T11:04:54.091Z,100.00
2019-03-15T11:07:22.599Z,100.00
2019-03-15T11:09:51.159Z,100.00
2019-03-15T11:12:19.808Z,100.00
2019-03-15T11:14:48.339Z,100.00
2019-03-15T11:17:16.405Z,100.00
2019-03-15T11:19:44.676Z,100.00
2019-03-15T11:22:12.795Z,100.00
2019-03-15T11:24:43.567Z,100.00
2019-03-15T11:27:11.039Z,100.00
2019-03-15T11:29:39.209Z,100.00
2019-03-15T11:32:08.584Z,100.00
2019-03-15T11:34:36.810Z,100.00
2019-03-15T11:37:04.936Z,100.00
2019-03-15T11:39:33.013Z,100.00
2019-03-15T11:42:01.126Z,100.00
2019-03-15T11:44:29.288Z,100.00
2019-03-15T11:46:57.516Z,100.00
2019-03-15T11:49:28.207Z,100.00
2019-03-15T11:51:55.888Z,100.00
2019-03-15T11:54:24.322Z,100.00
2019-03-15T11:56:52.704Z,100.00
2019-03-15T11:59:20.935Z,100.00
2019-03-15T12:01:49.125Z,100.00
2019-03-15T12:04:17.666Z,100.00
2019-03-15T12:06:45.785Z,100.00
2019-03-15T12:09:14.313Z,100.00
2019-03-15T12:11:42.447Z,100.00
2019-03-15T12:14:10.617Z,100.00
2019-03-15T12:16:38.714Z,100.00
2019-03-15T12:19:07.124Z,100.00
2019-03-15T12:21:35.576Z,100.00
2019-03-15T12:24:03.717Z,100.00
2019-03-15T12:26:40.360Z,100.00
2019-03-15T12:29:01.948Z,100.00
2019-03-15T12:31:30.157Z,100.00
2019-03-15T12:33:58.358Z,100.00
2019-03-15T12:36:26.431Z,100.00
2019-03-15T12:38:54.628Z,100.00
2019-03-15T12:41:24.803Z,100.00
2019-03-15T12:43:52.956Z,100.00
2019-03-15T12:46:21.096Z,100.00
2019-03-15T12:48:49.219Z,100.00
2019-03-15T12:51:17.340Z,100.00
2019-03-15T12:53:45.447Z,100.00
2019-03-15T12:56:13.702Z,100.00
2019-03-15T12:58:41.829Z,100.00
2019-03-15T13:01:09.913Z,100.00
2019-03-15T13:03:38.059Z,100.00
2019-03-15T13:06:06.157Z,99.46
2019-03-15T13:08:34.390Z,97.84
2019-03-15T13:11:02.499Z,98.30
2019-03-15T13:13:30.626Z,97.90
2019-03-15T13:15:58.727Z,97.56
2019-03-15T13:18:27.069Z,95.83
2019-03-15T13:20:55.217Z,95.82
2019-03-15T13:23:23.404Z,96.94
2019-03-15T13:25:51.605Z,94.48
2019-03-15T13:28:19.749Z,92.70
2019-03-15T13:30:47.973Z,90.18
2019-03-15T13:33:20.934Z,92.40
2019-03-15T13:35:47.534Z,100.00
2019-03-15T13:38:15.782Z,100.00
2019-03-15T13:40:43.924Z,99.26
2019-03-15T13:43:12.204Z,93.28
2019-03-15T13:45:40.443Z,93.85
2019-03-15T13:48:08.778Z,92.10
2019-03-15T13:50:36.893Z,91.37
2019-03-15T13:53:04.945Z,91.47
2019-03-15T13:55:33.244Z,89.03
2019-03-15T13:58:01.301Z,89.11
2019-03-15T14:00:29.449Z,89.24
2019-03-15T14:02:57.537Z,89.47
2019-03-15T14:05:25.667Z,89.71
2019-03-15T14:07:53.857Z,88.05
2019-03-15T14:10:21.985Z,86.85
2019-03-15T14:12:50.212Z,85.56
2019-03-15T14:15:18.405Z,85.42
2019-03-15T14:17:46.508Z,83.13
2019-03-15T14:20:14.590Z,81.34
2019-03-15T14:22:42.776Z,81.75
2019-03-15T14:25:11.294Z,78.67
2019-03-15T14:27:39.498Z,78.14
2019-03-15T14:30:09.641Z,69.93
2019-03-15T14:32:37.726Z,70.08
2019-03-15T14:35:06.893Z,68.54
2019-03-15T14:37:35.110Z,70.19
2019-03-15T14:40:03.646Z,70.77
2019-03-15T14:42:31.826Z,68.67
2019-03-15T14:45:00.097Z,67.82
2019-03-15T14:47:28.449Z,68.01
2019-03-15T14:49:57.060Z,68.58
2019-03-15T14:52:25.328Z,69.67
2019-03-15T14:54:53.698Z,69.31
2019-03-15T14:57:22.183Z,67.39
2019-03-15T14:59:50.767Z,68.59
2019-03-15T15:02:18.938Z,67.06
2019-03-15T15:04:47.484Z,67.85
2019-03-15T15:07:16.147Z,67.70
2019-03-15T15:09:47.343Z,67.48
2019-03-15T15:12:14.484Z,66.56
2019-03-15T15:14:42.690Z,67.81
2019-03-15T15:17:10.799Z,67.60
2019-03-15T15:19:39.344Z,63.41
2019-03-15T15:22:08.273Z,62.80
2019-03-15T15:24:37.064Z,62.49
2019-03-15T15:27:05.267Z,62.31
2019-03-15T15:29:33.415Z,63.38
2019-03-15T15:32:02.552Z,64.15
2019-03-15T15:34:31.103Z,65.46
2019-03-15T15:36:59.848Z,64.60
2019-03-15T15:39:28.161Z,63.27
2019-03-15T15:41:58.572Z,60.73
2019-03-15T15:44:26.550Z,61.80
2019-03-15T15:46:54.927Z,61.60
2019-03-15T15:49:26.033Z,60.75
2019-03-15T15:51:53.091Z,61.16
2019-03-15T15:54:21.213Z,61.81
2019-03-15T15:56:50.917Z,62.52
2019-03-15T15:59:19.198Z,62.78
2019-03-15T16:01:47.351Z,63.59
2019-03-15T16:04:15.615Z,63.75
2019-03-15T16:06:44.372Z,64.47
2019-03-15T16:09:12.532Z,64.51
2019-03-15T16:11:40.685Z,65.75
2019-03-15T16:14:08.775Z,69.44
2019-03-15T16:16:36.958Z,71.58
2019-03-15T16:19:05.219Z,78.28
2019-03-15T16:21:34.241Z,79.53
2019-03-15T16:24:02.398Z,79.54
2019-03-15T16:26:31.217Z,79.60
2019-03-15T16:28:59.431Z,79.83
2019-03-15T16:31:27.603Z,80.10
2019-03-15T16:33:55.749Z,80.46
2019-03-15T16:36:23.835Z,79.38
2019-03-15T16:38:52.059Z,78.25
2019-03-15T16:41:20.208Z,76.90
2019-03-15T16:43:48.355Z,75.53
2019-03-15T16:46:16.429Z,75.28
2019-03-15T16:48:44.514Z,74.59
2019-03-15T16:51:19.346Z,74.08
2019-03-15T16:53:42.672Z,70.91
2019-03-15T16:56:11.952Z,65.29
2019-03-15T16:58:45.447Z,65.38
2019-03-15T17:01:10.412Z,63.49
2019-03-15T17:03:38.852Z,64.83
2019-03-15T17:06:07.819Z,64.90
2019-03-15T17:08:35.965Z,64.49
2019-03-15T17:11:04.295Z,64.92
2019-03-15T17:13:32.456Z,64.31
2019-03-15T17:16:00.897Z,64.71
2019-03-15T17:18:29.151Z,66.08
2019-03-15T17:20:57.453Z,64.68
2019-03-15T17:23:25.558Z,64.83
2019-03-15T17:25:53.661Z,64.45
2019-03-15T17:28:22.427Z,63.98
2019-03-15T17:30:50.575Z,64.20
2019-03-15T17:33:18.688Z,64.55
2019-03-15T17:35:46.808Z,66.27
2019-03-15T17:38:14.910Z,66.37
2019-03-15T17:40:43.014Z,66.55
2019-03-15T17:43:12.601Z,66.79
2019-03-15T17:45:40.807Z,66.57
2019-03-15T17:48:08.915Z,66.54
2019-03-15T17:50:37.040Z,67.29
2019-03-15T17:53:05.201Z,68.21
2019-03-15T17:55:33.440Z,67.26
2019-03-15T17:58:01.834Z,67.43
2019-03-15T18:00:35.349Z,67.87
2019-03-15T18:03:04.086Z,67.62
2019-03-15T18:05:32.171Z,67.61
2019-03-15T18:08:00.452Z,67.81
2019-03-15T18:10:28.523Z,67.11
2019-03-15T18:12:57.009Z,68.48
2019-03-15T18:15:25.453Z,68.74
2019-03-15T18:17:53.707Z,68.12
2019-03-15T18:20:21.852Z,69.00
2019-03-15T18:22:50.014Z,68.37
2019-03-15T18:25:18.335Z,69.18
2019-03-15T18:27:47.095Z,69.50
2019-03-15T18:30:15.446Z,69.09
2019-03-15T18:32:43.602Z,68.98
2019-03-15T18:35:12.535Z,69.33
2019-03-15T18:37:40.810Z,69.71
2019-03-15T18:40:09.811Z,70.00
2019-03-15T18:42:38.380Z,70.71
2019-03-15T18:45:09.688Z,70.81
2019-03-15T18:47:37.766Z,70.66
2019-03-15T18:50:08.394Z,70.79
2019-03-15T18:52:36.601Z,71.25
2019-03-15T18:55:05.845Z,71.46
2019-03-15T18:57:34.335Z,70.55
2019-03-15T19:00:02.711Z,70.79
2019-03-15T19:02:30.850Z,71.51
2019-03-15T19:04:59.001Z,71.82
2019-03-15T19:07:27.101Z,71.65
2019-03-15T19:09:55.647Z,71.20
2019-03-15T19:12:23.774Z,71.39
2019-03-15T19:14:51.952Z,71.31
2019-03-15T19:17:20.182Z,71.21
2019-03-15T19:19:48.828Z,71.60
2019-03-15T19:22:17.145Z,72.34
2019-03-15T19:24:45.261Z,72.31
2019-03-15T19:27:13.370Z,72.67
2019-03-15T19:29:53.122Z,72.35
2019-03-15T19:32:11.654Z,73.28
2019-03-15T19:34:39.842Z,73.76
2019-03-15T19:37:07.938Z,72.47
2019-03-15T19:39:36.170Z,72.14
2019-03-15T19:42:04.318Z,71.30
2019-03-15T19:44:32.563Z,71.75
2019-03-15T19:47:00.860Z,71.48
2019-03-15T19:49:30.791Z,72.09
2019-03-15T19:51:58.947Z,72.72
2019-03-15T19:54:27.135Z,72.05
2019-03-15T19:56:55.741Z,71.14
2019-03-15T19:59:24.290Z,70.42
2019-03-15T20:01:52.421Z,71.48
2019-03-15T20:04:20.530Z,70.57
2019-03-15T20:06:49.935Z,70.39
2019-03-15T20:09:18.777Z,69.83
2019-03-15T20:11:46.976Z,69.45
2019-03-15T20:14:15.242Z,69.16
2019-03-15T20:16:43.477Z,69.12
2019-03-15T20:19:11.598Z,68.53
2019-03-15T20:21:39.796Z,68.71
2019-03-15T20:24:07.986Z,69.12
2019-03-15T20:26:36.250Z,69.98
2019-03-15T20:29:04.386Z,70.21
2019-03-15T20:31:32.696Z,70.38
2019-03-15T20:34:00.815Z,70.79
2019-03-15T20:36:29.019Z,71.28
2019-03-15T20:38:57.260Z,72.17
2019-03-15T20:41:25.345Z,72.54
2019-03-15T20:43:53.694Z,72.76
2019-03-15T20:46:34.854Z,73.33
2019-03-15T20:48:52.022Z,73.85
2019-03-15T20:51:20.288Z,74.14
2019-03-15T20:53:48.378Z,74.82
2019-03-15T20:56:16.646Z,74.81
2019-03-15T20:58:44.785Z,74.69
2019-03-15T21:01:12.999Z,75.36
2019-03-15T21:03:41.136Z,75.25
2019-03-15T21:06:09.297Z,75.42
2019-03-15T21:08:37.470Z,75.72
2019-03-15T21:11:05.655Z,76.11
2019-03-15T21:13:34.168Z,76.62
2019-03-15T21:16:02.612Z,76.87
2019-03-15T21:18:30.803Z,77.63
2019-03-15T21:20:58.892Z,77.95
2019-03-15T21:23:27.031Z,78.10
2019-03-15T21:25:55.138Z,78.60
2019-03-15T21:28:23.276Z,79.03
2019-03-15T21:30:51.920Z,79.43
2019-03-15T21:33:20.039Z,80.06
2019-03-15T21:35:48.511Z,79.96
2019-03-15T21:38:16.669Z,80.17
2019-03-15T21:40:44.771Z,80.46
2019-03-15T21:43:12.952Z,80.37
2019-03-15T21:45:41.009Z,80.84
2019-03-15T21:48:09.150Z,81.04
2019-03-15T21:50:37.302Z,81.73
2019-03-15T21:53:05.413Z,81.62
2019-03-15T21:55:33.563Z,81.84
2019-03-15T21:58:01.771Z,82.16
2019-03-15T22:00:29.896Z,82.46
2019-03-15T22:02:58.082Z,83.17
2019-03-15T22:05:26.191Z,83.17
2019-03-15T22:07:54.340Z,83.61
2019-03-15T22:10:22.440Z,83.67
2019-03-15T22:12:50.543Z,84.30
2019-03-15T22:15:18.756Z,83.94
2019-03-15T22:17:47.271Z,83.98
2019-03-15T22:20:15.590Z,83.97
2019-03-15T22:22:43.684Z,84.12
2019-03-15T22:25:11.784Z,84.08
2019-03-15T22:27:40.024Z,84.11
2019-03-15T22:30:08.355Z,84.11
2019-03-15T22:32:36.508Z,84.09
2019-03-15T22:35:04.839Z,84.12
2019-03-15T22:37:33.039Z,83.91
2019-03-15T22:40:01.204Z,84.03
2019-03-15T22:42:29.490Z,83.83
2019-03-15T22:44:59.959Z,83.67
2019-03-15T22:47:28.155Z,83.47
2019-03-15T22:49:56.362Z,83.65
2019-03-15T22:52:24.741Z,83.58
2019-03-15T22:54:52.999Z,83.43
2019-03-15T22:57:21.123Z,83.46
2019-03-15T22:59:49.332Z,83.81
2019-03-15T23:02:17.658Z,83.83
2019-03-15T23:04:45.846Z,84.20
2019-03-15T23:07:14.688Z,84.08
2019-03-15T23:09:43.230Z,84.47
2019-03-15T23:12:12.333Z,84.62
2019-03-15T23:14:40.528Z,84.90
2019-03-15T23:17:08.682Z,85.38
2019-03-15T23:19:36.839Z,85.70
2019-03-15T23:22:04.959Z,85.96
2019-03-15T23:24:33.075Z,86.03
2019-03-15T23:27:02.214Z,86.17
2019-03-15T23:29:30.403Z,86.48
2019-03-15T23:31:58.559Z,86.61
2019-03-15T23:34:26.944Z,87.00
2019-03-15T23:36:55.026Z,87.36
2019-03-15T23:39:23.264Z,87.31
2019-03-15T23:41:55.116Z,87.33
2019-03-15T23:44:22.640Z,87.15
2019-03-15T23:46:50.861Z,87.40
2019-03-15T23:49:18.909Z,87.66
2019-03-15T23:51:47.454Z,87.42
2019-03-15T23:54:15.680Z,87.29
2019-03-15T23:56:44.104Z,86.60
2019-03-15T23:59:12.194Z,86.62
